createdAt,value
2019-02-23T00:02:26.247Z,68.50
2019-02-23T00:06:31.954Z,68.60
2019-02-23T00:10:37.710Z,69.30
2019-02-23T00:14:43.472Z,70.80
2019-02-23T00:18:49.258Z,71.10
2019-02-23T00:22:54.951Z,66.00
2019-02-23T00:27:00.714Z,66.50
2019-02-23T00:31:06.468Z,69.90
2019-02-23T00:35:12.205Z,67.10
2019-02-23T00:39:17.916Z,66.20
2019-02-23T00:43:23.614Z,66.20
2019-02-23T00:47:30.390Z,65.00
2019-02-23T00:51:36.069Z,69.90
2019-02-23T00:55:41.768Z,68.90
2019-02-23T00:59:47.459Z,69.70
2019-02-23T01:03:53.168Z,67.80
2019-02-23T01:07:58.871Z,66.00
2019-02-23T01:12:04.558Z,66.80
2019-02-23T01:16:10.324Z,64.40
2019-02-23T01:20:16.089Z,66.00
2019-02-23T01:24:21.853Z,67.40
2019-02-23T01:28:29.293Z,65.30
2019-02-23T01:32:34.992Z,65.90
2019-02-23T01:36:40.690Z,70.80
2019-02-23T01:40:46.594Z,71.30
2019-02-23T01:44:52.407Z,67.50
2019-02-23T01:48:58.112Z,68.70
2019-02-23T01:53:03.813Z,70.60
2019-02-23T01:57:09.556Z,66.70
2019-02-23T02:01:15.322Z,69.10
2019-02-23T02:05:21.166Z,69.10
2019-02-23T02:09:27.012Z,66.60
2019-02-23T02:13:32.882Z,69.10
2019-02-23T02:17:38.743Z,66.50
2019-02-23T02:21:44.693Z,69.60
2019-02-23T02:25:50.480Z,65.40
2019-02-23T02:29:57.345Z,69.20
2019-02-23T02:34:12.863Z,67.70
2019-02-23T02:38:18.579Z,69.10
2019-02-23T02:42:24.265Z,72.90
2019-02-23T02:46:29.933Z,69.60
2019-02-23T02:50:35.643Z,68.20
2019-02-23T02:54:41.343Z,68.10
2019-02-23T02:58:47.034Z,71.90
2019-02-23T03:02:52.726Z,72.10
2019-02-23T03:06:58.420Z,73.30
2019-02-23T03:11:04.117Z,73.30
2019-02-23T03:15:10.120Z,67.10
2019-02-23T03:19:15.806Z,71.50
2019-02-23T03:23:21.534Z,68.50
2019-02-23T03:27:27.198Z,68.80
2019-02-23T03:31:33.030Z,69.80
2019-02-23T03:35:38.763Z,71.30
2019-02-23T03:39:44.557Z,74.20
2019-02-23T03:43:50.207Z,71.70
2019-02-23T03:47:55.885Z,65.90
2019-02-23T03:52:01.580Z,67.70
2019-02-23T03:56:07.366Z,68.80
2019-02-23T04:00:13.273Z,66.20
2019-02-23T04:04:18.933Z,72.10
2019-02-23T04:08:24.651Z,66.00
2019-02-23T04:12:30.405Z,66.60
2019-02-23T04:16:36.186Z,68.00
2019-02-23T04:20:41.871Z,74.70
2019-02-23T04:24:47.684Z,70.60
2019-02-23T04:28:53.382Z,67.90
2019-02-23T04:32:59.067Z,66.10
2019-02-23T04:37:04.766Z,74.20
2019-02-23T04:41:11.117Z,68.00
2019-02-23T04:45:16.800Z,66.20
2019-02-23T04:49:25.653Z,71.10
2019-02-23T04:53:29.876Z,69.80
2019-02-23T04:57:35.629Z,65.10
2019-02-23T05:01:41.383Z,65.90
2019-02-23T05:05:47.303Z,66.00
2019-02-23T05:09:52.994Z,63.60
2019-02-23T05:13:58.689Z,63.20
2019-02-23T05:18:04.473Z,62.20
2019-02-23T05:22:10.173Z,63.10
2019-02-23T05:26:15.925Z,60.50
2019-02-23T05:30:21.619Z,59.70
2019-02-23T05:34:27.319Z,60.00
2019-02-23T05:38:33.001Z,59.60
2019-02-23T05:42:39.728Z,59.80
2019-02-23T05:46:45.536Z,59.90
2019-02-23T05:50:51.278Z,59.80
2019-02-23T05:54:57.144Z,59.00
2019-02-23T05:59:03.796Z,58.00
2019-02-23T06:03:09.504Z,58.40
2019-02-23T06:07:15.204Z,58.50
2019-02-23T06:11:20.909Z,57.40
2019-02-23T06:15:26.588Z,58.10
2019-02-23T06:19:32.281Z,58.10
2019-02-23T06:23:37.957Z,56.90
2019-02-23T06:27:43.733Z,56.70
2019-02-23T06:31:49.515Z,57.40
2019-02-23T06:35:55.210Z,57.10
2019-02-23T06:40:00.909Z,56.40
2019-02-23T06:44:06.591Z,56.30
2019-02-23T06:48:12.300Z,56.90
2019-02-23T06:52:17.988Z,56.30
2019-02-23T06:56:23.770Z,55.90
2019-02-23T07:00:29.529Z,55.80
2019-02-23T07:04:35.209Z,55.60
2019-02-23T07:08:40.911Z,56.60
2019-02-23T07:12:46.607Z,55.10
2019-02-23T07:16:52.357Z,56.40
2019-02-23T07:20:58.094Z,59.60
2019-02-23T07:25:04.736Z,60.10
2019-02-23T07:29:10.426Z,56.50
2019-02-23T07:33:20.136Z,58.70
2019-02-23T07:37:23.526Z,59.60
2019-02-23T07:41:29.212Z,51.60
2019-02-23T07:45:34.911Z,55.20
2019-02-23T07:49:40.602Z,62.60
2019-02-23T07:53:46.386Z,59.80
2019-02-23T07:57:52.158Z,59.30
2019-02-23T08:01:57.884Z,59.80
2019-02-23T08:06:03.552Z,55.00
2019-02-23T08:10:12.322Z,57.90
2019-02-23T08:14:18.026Z,58.00
2019-02-23T08:18:23.738Z,54.30
2019-02-23T08:22:37.026Z,58.00
2019-02-23T08:26:37.819Z,53.10
2019-02-23T08:30:44.483Z,58.80
2019-02-23T08:34:50.259Z,56.40
2019-02-23T08:38:57.026Z,54.30
2019-02-23T08:43:02.736Z,51.40
2019-02-23T08:47:08.445Z,43.90
2019-02-23T08:51:14.158Z,42.30
2019-02-23T08:55:19.927Z,44.90
2019-02-23T08:59:25.637Z,42.40
2019-02-23T09:03:31.357Z,41.80
2019-02-23T09:07:37.069Z,40.30
2019-02-23T09:11:42.799Z,40.50
2019-02-23T09:15:50.689Z,39.00
2019-02-23T09:19:56.305Z,39.70
2019-02-23T09:24:02.018Z,37.20
2019-02-23T09:28:07.728Z,36.90
2019-02-23T09:32:13.427Z,39.20
2019-02-23T09:36:19.138Z,35.10
2019-02-23T09:40:24.834Z,34.10
2019-02-23T09:44:30.517Z,31.80
2019-02-23T09:48:36.233Z,30.80
2019-02-23T09:52:41.939Z,31.10
2019-02-23T09:56:47.727Z,33.70
2019-02-23T10:00:55.163Z,32.90
2019-02-23T10:05:00.786Z,34.30
2019-02-23T10:09:07.708Z,34.20
2019-02-23T10:13:15.097Z,30.90
2019-02-23T10:17:20.780Z,34.10
2019-02-23T10:21:26.541Z,32.30
2019-02-23T10:25:32.445Z,28.00
2019-02-23T10:29:39.317Z,27.00
2019-02-23T10:33:47.657Z,24.60
2019-02-23T10:37:52.435Z,25.20
2019-02-23T10:41:58.132Z,27.20
2019-02-23T10:46:03.848Z,28.10
2019-02-23T10:50:12.387Z,30.90
2019-02-23T10:54:18.139Z,29.90
2019-02-23T10:58:24.813Z,29.70
2019-02-23T11:02:30.592Z,29.10
2019-02-23T11:06:38.424Z,33.30
2019-02-23T11:10:43.853Z,36.70
2019-02-23T11:14:49.598Z,29.90
2019-02-23T11:18:55.309Z,28.70
2019-02-23T11:23:01.350Z,27.20
2019-02-23T11:27:07.636Z,25.80
2019-02-23T11:31:13.413Z,21.30
2019-02-23T11:35:19.122Z,18.60
2019-02-23T11:39:24.820Z,17.90
2019-02-23T11:43:30.522Z,16.10
2019-02-23T11:47:36.225Z,15.90
2019-02-23T11:51:41.931Z,16.70
2019-02-23T11:55:47.695Z,16.20
2019-02-23T11:59:53.466Z,16.20
2019-02-23T12:03:59.173Z,16.00
2019-02-23T12:08:04.884Z,16.50
2019-02-23T12:12:10.579Z,15.70
2019-02-23T12:16:16.294Z,15.20
2019-02-23T12:20:22.032Z,14.90
2019-02-23T12:24:27.724Z,15.00
2019-02-23T12:28:33.483Z,15.30
2019-02-23T12:32:39.178Z,15.80
2019-02-23T12:36:45.939Z,16.90
2019-02-23T12:40:51.643Z,17.80
2019-02-23T12:44:57.353Z,16.90
2019-02-23T12:49:03.049Z,17.50
2019-02-23T12:53:08.746Z,19.40
2019-02-23T12:57:14.432Z,21.20
2019-02-23T13:01:20.131Z,22.00
2019-02-23T13:05:25.842Z,19.50
2019-02-23T13:09:33.446Z,18.40
2019-02-23T13:13:49.152Z,13.60
2019-02-23T13:18:44.119Z,13.50
2019-02-23T13:23:10.650Z,15.30
2019-02-23T13:27:35.805Z,18.20
2019-02-23T13:31:46.101Z,19.20
2019-02-23T13:36:28.022Z,15.20
2019-02-23T13:41:13.367Z,14.90
2019-02-23T13:45:38.288Z,15.00
2019-02-23T13:50:12.673Z,14.60
2019-02-23T13:54:48.043Z,15.70
2019-02-23T13:59:06.517Z,17.40
2019-02-23T14:03:36.607Z,14.70
2019-02-23T14:07:48.728Z,14.20
2019-02-23T14:12:40.218Z,17.90
2019-02-23T14:17:07.997Z,15.00
2019-02-23T14:21:44.055Z,14.40
2019-02-23T14:26:09.470Z,15.30
2019-02-23T14:30:57.589Z,14.80
2019-02-23T14:35:20.096Z,14.80
2019-02-23T14:39:57.224Z,15.90
2019-02-23T14:44:37.226Z,21.80
2019-02-23T14:49:34.262Z,20.30
2019-02-23T14:53:56.506Z,18.40
2019-02-23T14:58:38.301Z,17.10
2019-02-23T15:02:51.358Z,18.90
2019-02-23T15:07:16.651Z,17.60
2019-02-23T15:11:35.704Z,21.90
2019-02-23T15:16:24.373Z,17.90
2019-02-23T15:20:55.403Z,19.40
2019-02-23T15:25:33.792Z,17.20
2019-02-23T15:30:00.330Z,22.10
2019-02-23T15:34:23.841Z,23.30
2019-02-23T15:39:16.890Z,25.20
2019-02-23T15:43:39.080Z,24.80
2019-02-23T15:48:06.876Z,22.00
2019-02-23T15:52:12.721Z,20.90
2019-02-23T15:56:18.490Z,19.80
2019-02-23T16:00:24.198Z,22.40
2019-02-23T16:04:29.877Z,21.60
2019-02-23T16:08:35.581Z,19.50
2019-02-23T16:12:42.326Z,24.00
2019-02-23T16:16:48.044Z,21.80
2019-02-23T16:20:53.867Z,26.50
2019-02-23T16:25:01.189Z,19.10
2019-02-23T16:29:07.019Z,18.90
2019-02-23T16:33:12.772Z,24.20
2019-02-23T16:37:18.514Z,24.90
2019-02-23T16:41:24.252Z,25.50
2019-02-23T16:45:29.939Z,25.70
2019-02-23T16:49:35.656Z,22.70
2019-02-23T16:53:41.361Z,28.50
2019-02-23T16:57:47.075Z,24.40
2019-02-23T17:01:52.760Z,29.00
2019-02-23T17:05:59.809Z,29.10
2019-02-23T17:10:07.360Z,27.40
2019-02-23T17:14:13.046Z,24.20
2019-02-23T17:18:18.747Z,24.80
2019-02-23T17:22:25.408Z,24.50
2019-02-23T17:26:31.097Z,28.00
2019-02-23T17:30:36.804Z,25.00
2019-02-23T17:34:42.519Z,26.00
2019-02-23T17:38:48.227Z,27.10
2019-02-23T17:42:53.923Z,24.50
2019-02-23T17:46:59.635Z,22.90
2019-02-23T17:51:05.350Z,25.00
2019-02-23T17:55:11.043Z,26.10
2019-02-23T17:59:16.789Z,25.20
2019-02-23T18:03:22.768Z,26.70
2019-02-23T18:07:28.523Z,28.70
2019-02-23T18:11:34.232Z,28.40
2019-02-23T18:15:40.024Z,28.80
2019-02-23T18:19:45.708Z,28.20
2019-02-23T18:23:51.496Z,30.50
2019-02-23T18:27:57.221Z,29.50
2019-02-23T18:37:08.406Z,26.60
2019-02-23T18:41:14.175Z,29.10
2019-02-23T18:45:19.943Z,30.00
2019-02-23T18:49:25.748Z,33.70
2019-02-23T18:53:31.577Z,30.30
2019-02-23T18:57:37.302Z,31.90
2019-02-23T19:01:43.009Z,32.90
2019-02-23T19:05:50.100Z,30.00
2019-02-23T19:09:56.876Z,26.60
2019-02-23T19:14:02.627Z,24.10
2019-02-23T19:18:20.424Z,27.60
2019-02-23T19:22:26.140Z,28.70
2019-02-23T19:26:38.247Z,26.60
2019-02-23T19:30:40.370Z,26.80
2019-02-23T19:34:46.159Z,23.10
2019-02-23T19:38:51.919Z,23.30
2019-02-23T19:42:57.652Z,23.90
2019-02-23T19:47:03.554Z,24.50
2019-02-23T19:51:10.170Z,25.50
2019-02-23T19:55:17.593Z,24.40
2019-02-23T19:59:23.294Z,23.70
2019-02-23T20:03:29.044Z,23.20
2019-02-23T20:07:34.739Z,22.80
2019-02-23T20:11:40.464Z,24.00
2019-02-23T20:15:46.340Z,23.00
2019-02-23T20:36:19.094Z,22.00
2019-02-23T20:41:15.905Z,24.00
2019-02-23T20:45:21.721Z,22.30
2019-02-23T20:50:18.263Z,23.10
2019-02-23T20:54:24.022Z,22.50
2019-02-23T20:59:17.802Z,22.60
2019-02-23T21:03:23.501Z,26.50
2019-02-23T21:08:17.472Z,25.00
2019-02-23T21:12:23.290Z,22.10
2019-02-23T21:17:17.142Z,21.90
2019-02-23T21:21:22.845Z,21.50
2019-02-23T21:26:16.856Z,20.90
2019-02-23T21:30:22.541Z,23.30
2019-02-23T21:39:58.930Z,20.90
2019-02-23T21:44:19.490Z,24.60
2019-02-23T21:48:25.225Z,22.10
2019-02-23T21:52:30.929Z,20.70
2019-02-23T21:56:36.645Z,20.20
2019-02-23T22:00:42.361Z,21.30
2019-02-23T22:04:48.061Z,20.30
2019-02-23T22:08:53.822Z,20.60
2019-02-23T22:12:59.557Z,19.70
2019-02-23T22:17:05.293Z,19.70
2019-02-23T22:21:10.995Z,19.40
2019-02-23T22:25:16.700Z,19.40
2019-02-23T22:29:22.393Z,19.80
2019-02-23T22:33:28.181Z,19.60
2019-02-23T22:37:33.902Z,19.00
2019-02-23T22:41:39.566Z,19.00
2019-02-23T22:45:45.278Z,19.10
2019-02-23T22:49:50.986Z,20.90
2019-02-23T22:53:56.690Z,18.40
2019-02-23T22:58:02.420Z,18.50
2019-02-23T23:02:08.189Z,19.40
2019-02-23T23:06:13.934Z,22.70
2019-02-23T23:10:19.689Z,20.70
2019-02-23T23:14:25.368Z,18.20
2019-02-23T23:18:32.032Z,23.30
2019-02-23T23:22:37.716Z,24.00
2019-02-23T23:26:43.484Z,25.70
2019-02-23T23:30:49.191Z,26.90
2019-02-23T23:34:54.957Z,22.10
2019-02-23T23:39:00.695Z,20.50
2019-02-23T23:43:08.004Z,18.00
2019-02-23T23:47:13.722Z,22.50
2019-02-23T23:51:19.405Z,24.20
2019-02-23T23:55:25.097Z,27.40
2019-02-23T23:59:30.779Z,18.80
